Karlin, Michigan
Current Conditions -  °F | °C
As of 9:24 AM on Thursday 27 Nov 2014 (Local Time) from KTVC Reporting Station
Light Snow Light Snow  
Wind Chill: 14°   Ceiling: 3000
Heat Index: 25°   Visibility: 3mi
Dew Point: 18°   Wind: 12mph
Humidity: 75%   Direction: 350°N
Pressure: 30.2"   Gusts: 20mph
Location:  44.6352°N, 85.8298°W
Report Text: KTVC 271424Z 35010G17KT 3SM -SN SCT022 OVC030 M04/M08 A3020 RMK AO2 P0000 T10391078
Loading
Personal Weather Stations






























Interactive Weather Map New forecast layout! Learn more

10-Day Weather Forecast

Advertisements
Track Severe Weather on mobile